sensor_id;sensor_type;location;lat;lon;timestamp;pressure;altitude;pressure_sealevel;temperature;humidity
5413;BME280;2729;50.056;8.678;2022-11-15T00:01:26;99979.75;;;10.24;100.00
5413;BME280;2729;50.056;8.678;2022-11-15T00:04:11;99982.63;;;10.14;100.00
5413;BME280;2729;50.056;8.678;2022-11-15T00:06:55;99982.72;;;10.11;100.00
5413;BME280;2729;50.056;8.678;2022-11-15T00:09:40;99979.06;;;9.85;100.00
5413;BME280;2729;50.056;8.678;2022-11-15T00:12:24;99971.50;;;9.76;100.00
5413;BME280;2729;50.056;8.678;2022-11-15T00:15:09;99975.69;;;9.82;100.00
5413;BME280;2729;50.056;8.678;2022-11-15T00:17:53;99978.91;;;9.91;100.00
5413;BME280;2729;50.056;8.678;2022-11-15T00:20:38;99977.75;;;10.02;100.00
5413;BME280;2729;50.056;8.678;2022-11-15T00:23:22;99978.00;;;9.92;100.00
5413;BME280;2729;50.056;8.678;2022-11-15T00:26:08;99977.97;;;9.94;100.00
5413;BME280;2729;50.056;8.678;2022-11-15T00:28:55;99977.84;;;9.98;100.00
5413;BME280;2729;50.056;8.678;2022-11-15T00:31:39;99978.41;;;10.10;100.00
5413;BME280;2729;50.056;8.678;2022-11-15T00:34:24;99987.94;;;10.11;100.00
5413;BME280;2729;50.056;8.678;2022-11-15T00:37:08;99984.25;;;10.18;100.00
5413;BME280;2729;50.056;8.678;2022-11-15T00:39:52;99971.16;;;10.21;100.00
5413;BME280;2729;50.056;8.678;2022-11-15T00:42:37;99974.81;;;10.14;100.00
5413;BME280;2729;50.056;8.678;2022-11-15T00:45:22;99971.25;;;10.16;100.00
5413;BME280;2729;50.056;8.678;2022-11-15T00:48:07;99967.66;;;10.22;100.00
5413;BME280;2729;50.056;8.678;2022-11-15T00:50:51;99973.59;;;10.27;100.00
5413;BME280;2729;50.056;8.678;2022-11-15T00:53:36;99962.03;;;10.05;100.00
5413;BME280;2729;50.056;8.678;2022-11-15T00:56:20;99956.72;;;10.08;100.00
5413;BME280;2729;50.056;8.678;2022-11-15T00:59:05;99953.81;;;10.18;100.00
5413;BME280;2729;50.056;8.678;2022-11-15T01:01:49;99953.75;;;10.21;100.00
5413;BME280;2729;50.056;8.678;2022-11-15T01:04:34;99958.88;;;10.24;100.00
5413;BME280;2729;50.056;8.678;2022-11-15T01:07:18;99949.41;;;10.22;100.00
5413;BME280;2729;50.056;8.678;2022-11-15T01:10:04;99949.31;;;10.25;100.00
5413;BME280;2729;50.056;8.678;2022-11-15T01:12:49;99937.56;;;10.09;100.00
5413;BME280;2729;50.056;8.678;2022-11-15T01:15:33;99938.78;;;9.97;100.00
5413;BME280;2729;50.056;8.678;2022-11-15T01:18:18;99933.22;;;10.09;100.00
5413;BME280;2729;50.056;8.678;2022-11-15T01:21:07;99940.06;;;10.13;100.00
5413;BME280;2729;50.056;8.678;2022-11-15T01:23:56;99940.78;;;10.20;100.00
5413;BME280;2729;50.056;8.678;2022-11-15T01:26:41;99940.50;;;9.98;100.00
5413;BME280;2729;50.056;8.678;2022-11-15T01:29:25;99940.16;;;10.10;100.00
5413;BME280;2729;50.056;8.678;2022-11-15T01:32:10;99935.78;;;10.11;100.00
5413;BME280;2729;50.056;8.678;2022-11-15T01:34:54;99939.53;;;10.00;100.00
5413;BME280;2729;50.056;8.678;2022-11-15T01:37:39;99933.59;;;9.95;100.00
5413;BME280;2729;50.056;8.678;2022-11-15T01:40:23;99929.13;;;10.00;100.00
5413;BME280;2729;50.056;8.678;2022-11-15T01:43:22;99929.06;;;10.02;100.00
5413;BME280;2729;50.056;8.678;2022-11-15T01:49:13;99920.41;;;10.02;100.00
5413;BME280;2729;50.056;8.678;2022-11-15T01:52:00;99913.13;;;10.13;100.00
5413;BME280;2729;50.056;8.678;2022-11-15T01:54:48;99919.38;;;10.07;100.00
5413;BME280;2729;50.056;8.678;2022-11-15T01:57:35;99921.84;;;10.12;100.00
5413;BME280;2729;50.056;8.678;2022-11-15T02:00:19;99923.59;;;10.11;100.00
5413;BME280;2729;50.056;8.678;2022-11-15T02:03:04;99919.59;;;9.99;100.00
5413;BME280;2729;50.056;8.678;2022-11-15T02:05:48;99918.59;;;10.04;100.00
5413;BME280;2729;50.056;8.678;2022-11-15T02:08:34;99913.69;;;10.24;100.00
5413;BME280;2729;50.056;8.678;2022-11-15T02:11:18;99903.91;;;10.32;100.00
5413;BME280;2729;50.056;8.678;2022-11-15T02:14:05;99906.06;;;10.16;100.00
5413;BME280;2729;50.056;8.678;2022-11-15T02:17:12;99896.88;;;10.34;100.00
5413;BME280;2729;50.056;8.678;2022-11-15T02:23:22;99894.84;;;10.45;100.00
5413;BME280;2729;50.056;8.678;2022-11-15T02:26:37;99886.00;;;10.49;100.00
5413;BME280;2729;50.056;8.678;2022-11-15T02:33:28;99863.66;;;10.41;100.00
5413;BME280;2729;50.056;8.678;2022-11-15T02:39:36;99866.84;;;10.50;100.00
5413;BME280;2729;50.056;8.678;2022-11-15T02:42:28;99860.00;;;10.46;100.00
5413;BME280;2729;50.056;8.678;2022-11-15T02:45:39;99858.41;;;10.42;100.00
5413;BME280;2729;50.056;8.678;2022-11-15T02:48:25;99863.53;;;10.45;100.00
5413;BME280;2729;50.056;8.678;2022-11-15T02:51:10;99872.78;;;10.26;100.00
5413;BME280;2729;50.056;8.678;2022-11-15T02:53:55;99870.91;;;10.00;100.00
5413;BME280;2729;50.056;8.678;2022-11-15T02:56:40;99870.41;;;9.87;100.00
5413;BME280;2729;50.056;8.678;2022-11-15T02:59:51;99870.31;;;9.90;100.00
5413;BME280;2729;50.056;8.678;2022-11-15T03:09:10;99855.59;;;9.89;100.00
5413;BME280;2729;50.056;8.678;2022-11-15T03:12:07;99856.19;;;9.68;100.00
5413;BME280;2729;50.056;8.678;2022-11-15T03:15:06;99856.97;;;9.72;100.00
5413;BME280;2729;50.056;8.678;2022-11-15T03:18:02;99854.19;;;9.78;100.00
5413;BME280;2729;50.056;8.678;2022-11-15T03:20:48;99853.47;;;9.73;100.00
5413;BME280;2729;50.056;8.678;2022-11-15T03:23:36;99854.19;;;9.47;100.00
5413;BME280;2729;50.056;8.678;2022-11-15T03:26:23;99861.13;;;9.46;100.00
5413;BME280;2729;50.056;8.678;2022-11-15T03:29:13;99865.81;;;9.33;100.00
5413;BME280;2729;50.056;8.678;2022-11-15T03:32:01;99861.09;;;9.48;100.00
5413;BME280;2729;50.056;8.678;2022-11-15T03:34:55;99855.72;;;9.54;100.00
5413;BME280;2729;50.056;8.678;2022-11-15T03:37:48;99856.13;;;9.39;100.00
5413;BME280;2729;50.056;8.678;2022-11-15T03:40:42;99867.19;;;9.47;100.00
5413;BME280;2729;50.056;8.678;2022-11-15T03:43:46;99866.72;;;9.32;100.00
5413;BME280;2729;50.056;8.678;2022-11-15T03:46:37;99861.19;;;9.45;100.00
5413;BME280;2729;50.056;8.678;2022-11-15T03:49:31;99852.47;;;9.46;100.00
5413;BME280;2729;50.056;8.678;2022-11-15T03:52:18;99854.09;;;9.50;100.00
5413;BME280;2729;50.056;8.678;2022-11-15T03:55:05;99848.00;;;9.51;100.00
5413;BME280;2729;50.056;8.678;2022-11-15T03:57:58;99847.84;;;9.55;100.00
5413;BME280;2729;50.056;8.678;2022-11-15T04:00:43;99853.75;;;9.62;100.00
5413;BME280;2729;50.056;8.678;2022-11-15T04:03:27;99856.53;;;9.56;100.00
5413;BME280;2729;50.056;8.678;2022-11-15T04:06:12;99856.56;;;9.54;100.00
5413;BME280;2729;50.056;8.678;2022-11-15T04:08:56;99860.97;;;9.52;100.00
5413;BME280;2729;50.056;8.678;2022-11-15T04:11:41;99860.84;;;9.57;100.00
5413;BME280;2729;50.056;8.678;2022-11-15T04:14:25;99863.41;;;9.58;100.00
5413;BME280;2729;50.056;8.678;2022-11-15T04:17:10;99866.63;;;9.68;100.00
5413;BME280;2729;50.056;8.678;2022-11-15T04:19:54;99863.66;;;9.80;100.00
5413;BME280;2729;50.056;8.678;2022-11-15T04:22:59;99863.41;;;9.89;100.00
5413;BME280;2729;50.056;8.678;2022-11-15T04:26:14;99862.13;;;9.73;100.00
5413;BME280;2729;50.056;8.678;2022-11-15T04:29:00;99860.19;;;9.80;100.00
5413;BME280;2729;50.056;8.678;2022-11-15T04:32:05;99851.66;;;9.75;100.00
5413;BME280;2729;50.056;8.678;2022-11-15T04:34:50;99846.28;;;9.81;100.00
5413;BME280;2729;50.056;8.678;2022-11-15T04:37:35;99846.06;;;9.88;100.00
5413;BME280;2729;50.056;8.678;2022-11-15T04:40:19;99838.16;;;9.91;100.00
5413;BME280;2729;50.056;8.678;2022-11-15T04:43:04;99842.19;;;10.02;100.00
5413;BME280;2729;50.056;8.678;2022-11-15T04:45:48;99840.44;;;10.02;100.00
5413;BME280;2729;50.056;8.678;2022-11-15T04:48:33;99838.53;;;10.07;100.00
5413;BME280;2729;50.056;8.678;2022-11-15T04:51:17;99829.97;;;10.04;100.00
5413;BME280;2729;50.056;8.678;2022-11-15T04:54:02;99826.19;;;10.14;100.00
5413;BME280;2729;50.056;8.678;2022-11-15T04:56:46;99834.72;;;10.19;100.00
5413;BME280;2729;50.056;8.678;2022-11-15T04:59:31;99831.13;;;10.23;100.00
5413;BME280;2729;50.056;8.678;2022-11-15T05:02:15;99833.00;;;10.18;100.00
5413;BME280;2729;50.056;8.678;2022-11-15T05:05:00;99831.34;;;10.15;100.00
5413;BME280;2729;50.056;8.678;2022-11-15T05:07:44;99827.53;;;9.97;100.00
5413;BME280;2729;50.056;8.678;2022-11-15T05:10:29;99823.75;;;10.08;100.00
5413;BME280;2729;50.056;8.678;2022-11-15T05:13:13;99820.19;;;10.10;100.00
5413;BME280;2729;50.056;8.678;2022-11-15T05:15:58;99821.78;;;10.16;100.00
5413;BME280;2729;50.056;8.678;2022-11-15T05:18:42;99819.16;;;10.16;100.00
5413;BME280;2729;50.056;8.678;2022-11-15T05:21:27;99824.31;;;10.17;100.00
5413;BME280;2729;50.056;8.678;2022-11-15T05:24:11;99830.44;;;10.16;100.00
5413;BME280;2729;50.056;8.678;2022-11-15T05:26:55;99821.47;;;10.26;100.00
5413;BME280;2729;50.056;8.678;2022-11-15T05:29:39;99815.16;;;10.34;100.00
5413;BME280;2729;50.056;8.678;2022-11-15T05:32:24;99820.44;;;10.32;100.00
5413;BME280;2729;50.056;8.678;2022-11-15T05:35:12;99813.41;;;10.34;100.00
5413;BME280;2729;50.056;8.678;2022-11-15T05:37:58;99812.41;;;10.38;100.00
5413;BME280;2729;50.056;8.678;2022-11-15T05:40:42;99806.78;;;10.24;100.00
5413;BME280;2729;50.056;8.678;2022-11-15T05:43:27;99805.72;;;10.29;100.00
5413;BME280;2729;50.056;8.678;2022-11-15T05:46:13;99809.13;;;10.31;100.00
5413;BME280;2729;50.056;8.678;2022-11-15T05:48:57;99812.16;;;10.47;100.00
5413;BME280;2729;50.056;8.678;2022-11-15T05:51:43;99800.72;;;10.51;100.00
5413;BME280;2729;50.056;8.678;2022-11-15T05:54:28;99785.91;;;10.52;100.00
5413;BME280;2729;50.056;8.678;2022-11-15T05:57:12;99783.34;;;10.50;100.00
5413;BME280;2729;50.056;8.678;2022-11-15T06:00:06;99794.63;;;10.51;100.00
5413;BME280;2729;50.056;8.678;2022-11-15T06:02:52;99792.13;;;10.48;100.00
5413;BME280;2729;50.056;8.678;2022-11-15T06:05:36;99796.44;;;10.49;100.00
5413;BME280;2729;50.056;8.678;2022-11-15T06:08:21;99792.78;;;10.54;100.00
5413;BME280;2729;50.056;8.678;2022-11-15T06:11:06;99791.63;;;10.63;100.00
5413;BME280;2729;50.056;8.678;2022-11-15T06:13:51;99787.75;;;10.75;100.00
5413;BME280;2729;50.056;8.678;2022-11-15T06:16:35;99789.06;;;10.88;100.00
5413;BME280;2729;50.056;8.678;2022-11-15T06:19:19;99781.75;;;10.98;100.00
5413;BME280;2729;50.056;8.678;2022-11-15T06:22:04;99784.69;;;10.88;100.00
5413;BME280;2729;50.056;8.678;2022-11-15T06:24:48;99787.59;;;10.79;100.00
5413;BME280;2729;50.056;8.678;2022-11-15T06:27:33;99791.16;;;10.77;100.00
5413;BME280;2729;50.056;8.678;2022-11-15T06:30:17;99785.50;;;10.64;100.00
5413;BME280;2729;50.056;8.678;2022-11-15T06:33:03;99790.63;;;10.67;100.00
5413;BME280;2729;50.056;8.678;2022-11-15T06:35:48;99800.16;;;10.68;100.00
5413;BME280;2729;50.056;8.678;2022-11-15T06:38:33;99795.50;;;10.78;100.00
5413;BME280;2729;50.056;8.678;2022-11-15T06:41:17;99802.97;;;10.88;100.00
5413;BME280;2729;50.056;8.678;2022-11-15T06:44:02;99810.75;;;10.90;100.00
5413;BME280;2729;50.056;8.678;2022-11-15T06:46:47;99796.56;;;10.97;100.00
5413;BME280;2729;50.056;8.678;2022-11-15T06:49:31;99796.47;;;11.00;100.00
5413;BME280;2729;50.056;8.678;2022-11-15T06:52:16;99797.47;;;10.96;100.00
5413;BME280;2729;50.056;8.678;2022-11-15T06:55:02;99794.13;;;10.92;100.00
5413;BME280;2729;50.056;8.678;2022-11-15T06:57:51;99799.34;;;11.17;100.00
5413;BME280;2729;50.056;8.678;2022-11-15T07:00:36;99801.00;;;11.20;100.00
5413;BME280;2729;50.056;8.678;2022-11-15T07:03:21;99804.31;;;11.25;100.00
5413;BME280;2729;50.056;8.678;2022-11-15T07:06:06;99804.78;;;11.36;100.00
5413;BME280;2729;50.056;8.678;2022-11-15T07:08:51;99806.53;;;11.36;100.00
5413;BME280;2729;50.056;8.678;2022-11-15T07:11:35;99811.88;;;11.33;100.00
5413;BME280;2729;50.056;8.678;2022-11-15T07:14:20;99814.84;;;11.22;100.00
5413;BME280;2729;50.056;8.678;2022-11-15T07:17:04;99815.50;;;11.04;100.00
5413;BME280;2729;50.056;8.678;2022-11-15T07:19:49;99811.81;;;11.09;100.00
5413;BME280;2729;50.056;8.678;2022-11-15T07:22:33;99807.94;;;11.21;100.00
5413;BME280;2729;50.056;8.678;2022-11-15T07:25:18;99809.47;;;11.26;100.00
5413;BME280;2729;50.056;8.678;2022-11-15T07:28:03;99817.72;;;11.39;100.00
5413;BME280;2729;50.056;8.678;2022-11-15T07:30:47;99814.03;;;11.45;100.00
5413;BME280;2729;50.056;8.678;2022-11-15T07:33:32;99814.28;;;11.62;100.00
5413;BME280;2729;50.056;8.678;2022-11-15T07:36:16;99808.56;;;11.76;100.00
5413;BME280;2729;50.056;8.678;2022-11-15T07:39:01;99800.44;;;11.83;100.00
5413;BME280;2729;50.056;8.678;2022-11-15T07:41:45;99798.41;;;11.91;100.00
5413;BME280;2729;50.056;8.678;2022-11-15T07:44:32;99792.31;;;11.91;100.00
5413;BME280;2729;50.056;8.678;2022-11-15T07:47:16;99795.13;;;12.08;100.00
5413;BME280;2729;50.056;8.678;2022-11-15T07:50:01;99797.03;;;12.05;100.00
5413;BME280;2729;50.056;8.678;2022-11-15T07:52:45;99797.97;;;12.02;100.00
5413;BME280;2729;50.056;8.678;2022-11-15T07:55:30;99795.69;;;12.16;100.00
5413;BME280;2729;50.056;8.678;2022-11-15T07:58:14;99795.31;;;12.26;100.00
5413;BME280;2729;50.056;8.678;2022-11-15T08:01:03;99798.38;;;12.37;100.00
5413;BME280;2729;50.056;8.678;2022-11-15T08:03:48;99801.72;;;12.40;100.00
5413;BME280;2729;50.056;8.678;2022-11-15T08:06:32;99806.47;;;12.52;100.00
5413;BME280;2729;50.056;8.678;2022-11-15T08:09:17;99802.63;;;12.61;100.00
5413;BME280;2729;50.056;8.678;2022-11-15T08:12:01;99798.41;;;12.57;100.00
5413;BME280;2729;50.056;8.678;2022-11-15T08:14:46;99808.06;;;12.77;100.00
5413;BME280;2729;50.056;8.678;2022-11-15T08:17:30;99797.03;;;12.91;100.00
5413;BME280;2729;50.056;8.678;2022-11-15T08:20:16;99802.69;;;13.02;100.00
5413;BME280;2729;50.056;8.678;2022-11-15T08:23:02;99801.56;;;13.07;100.00
5413;BME280;2729;50.056;8.678;2022-11-15T08:25:47;99802.22;;;13.12;100.00
5413;BME280;2729;50.056;8.678;2022-11-15T08:28:32;99800.41;;;13.14;100.00
5413;BME280;2729;50.056;8.678;2022-11-15T08:31:18;99807.34;;;13.15;100.00
5413;BME280;2729;50.056;8.678;2022-11-15T08:34:03;99805.56;;;13.16;100.00
5413;BME280;2729;50.056;8.678;2022-11-15T08:36:48;99804.88;;;13.33;100.00
5413;BME280;2729;50.056;8.678;2022-11-15T08:39:32;99810.75;;;13.38;100.00
5413;BME280;2729;50.056;8.678;2022-11-15T08:42:17;99805.47;;;13.39;100.00
5413;BME280;2729;50.056;8.678;2022-11-15T08:45:02;99797.47;;;13.42;100.00
5413;BME280;2729;50.056;8.678;2022-11-15T08:47:47;99802.78;;;13.41;100.00
5413;BME280;2729;50.056;8.678;2022-11-15T08:50:31;99793.06;;;13.43;100.00
5413;BME280;2729;50.056;8.678;2022-11-15T08:53:16;99793.78;;;13.46;100.00
5413;BME280;2729;50.056;8.678;2022-11-15T08:56:01;99790.88;;;13.52;100.00
5413;BME280;2729;50.056;8.678;2022-11-15T08:58:45;99777.44;;;13.60;100.00
5413;BME280;2729;50.056;8.678;2022-11-15T09:01:31;99798.19;;;13.65;100.00
5413;BME280;2729;50.056;8.678;2022-11-15T09:04:16;99792.59;;;13.72;100.00
5413;BME280;2729;50.056;8.678;2022-11-15T09:07:01;99789.91;;;13.74;100.00
5413;BME280;2729;50.056;8.678;2022-11-15T09:09:45;99802.69;;;13.81;100.00
5413;BME280;2729;50.056;8.678;2022-11-15T09:12:30;99795.25;;;13.91;100.00
5413;BME280;2729;50.056;8.678;2022-11-15T09:15:15;99792.19;;;14.00;100.00
5413;BME280;2729;50.056;8.678;2022-11-15T09:18:00;99797.94;;;14.08;100.00
5413;BME280;2729;50.056;8.678;2022-11-15T09:20:45;99789.97;;;14.10;100.00
5413;BME280;2729;50.056;8.678;2022-11-15T09:23:29;99788.06;;;14.13;100.00
5413;BME280;2729;50.056;8.678;2022-11-15T09:26:13;99790.03;;;14.27;100.00
5413;BME280;2729;50.056;8.678;2022-11-15T09:28:58;99782.09;;;14.29;100.00
5413;BME280;2729;50.056;8.678;2022-11-15T09:31:42;99785.97;;;14.39;100.00
5413;BME280;2729;50.056;8.678;2022-11-15T09:34:27;99781.38;;;14.25;100.00
5413;BME280;2729;50.056;8.678;2022-11-15T09:37:11;99781.31;;;14.27;100.00
5413;BME280;2729;50.056;8.678;2022-11-15T09:39:56;99775.72;;;14.15;100.00
5413;BME280;2729;50.056;8.678;2022-11-15T09:43:03;99776.28;;;14.22;100.00
5413;BME280;2729;50.056;8.678;2022-11-15T09:49:18;99772.81;;;14.22;100.00
5413;BME280;2729;50.056;8.678;2022-11-15T09:52:08;99770.25;;;14.20;100.00
5413;BME280;2729;50.056;8.678;2022-11-15T09:54:37;99772.81;;;14.22;100.00
5413;BME280;2729;50.056;8.678;2022-11-15T10:00:33;99761.63;;;14.35;100.00
5413;BME280;2729;50.056;8.678;2022-11-15T10:03:29;99756.38;;;14.35;100.00
5413;BME280;2729;50.056;8.678;2022-11-15T10:06:01;99753.19;;;14.47;100.00
5413;BME280;2729;50.056;8.678;2022-11-15T10:08:37;99750.97;;;14.57;100.00
5413;BME280;2729;50.056;8.678;2022-11-15T10:11:09;99750.56;;;14.65;100.00
5413;BME280;2729;50.056;8.678;2022-11-15T10:13:40;99747.94;;;14.65;100.00
5413;BME280;2729;50.056;8.678;2022-11-15T10:19:03;99735.75;;;14.81;100.00
5413;BME280;2729;50.056;8.678;2022-11-15T10:24:22;99715.88;;;14.75;100.00
5413;BME280;2729;50.056;8.678;2022-11-15T10:26:49;99711.94;;;14.84;100.00
5413;BME280;2729;50.056;8.678;2022-11-15T10:29:21;99716.66;;;14.77;100.00
5413;BME280;2729;50.056;8.678;2022-11-15T10:31:47;99714.13;;;14.59;100.00
5413;BME280;2729;50.056;8.678;2022-11-15T10:34:22;99715.03;;;14.58;100.00
5413;BME280;2729;50.056;8.678;2022-11-15T10:36:59;99728.25;;;14.56;100.00
5413;BME280;2729;50.056;8.678;2022-11-15T10:39:27;99713.50;;;14.71;100.00
5413;BME280;2729;50.056;8.678;2022-11-15T10:41:53;99720.75;;;14.83;100.00
5413;BME280;2729;50.056;8.678;2022-11-15T10:44:30;99704.38;;;14.78;100.00
5413;BME280;2729;50.056;8.678;2022-11-15T10:49:25;99704.59;;;14.73;100.00
5413;BME280;2729;50.056;8.678;2022-11-15T10:51:57;99706.44;;;14.89;100.00
5413;BME280;2729;50.056;8.678;2022-11-15T10:54:30;99703.16;;;15.18;100.00
5413;BME280;2729;50.056;8.678;2022-11-15T10:56:59;99694.09;;;15.24;100.00
5413;BME280;2729;50.056;8.678;2022-11-15T10:59:35;99689.44;;;14.96;100.00
5413;BME280;2729;50.056;8.678;2022-11-15T11:02:02;99687.31;;;14.69;100.00
5413;BME280;2729;50.056;8.678;2022-11-15T11:04:28;99685.88;;;14.97;100.00
5413;BME280;2729;50.056;8.678;2022-11-15T11:06:56;99669.09;;;14.99;100.00
5413;BME280;2729;50.056;8.678;2022-11-15T11:09:34;99668.03;;;15.19;100.00
5413;BME280;2729;50.056;8.678;2022-11-15T11:12:03;99654.97;;;15.18;100.00
5413;BME280;2729;50.056;8.678;2022-11-15T11:14:31;99662.19;;;14.81;100.00
5413;BME280;2729;50.056;8.678;2022-11-15T11:22:32;99652.53;;;15.30;100.00
5413;BME280;2729;50.056;8.678;2022-11-15T11:25:04;99648.53;;;15.23;100.00
5413;BME280;2729;50.056;8.678;2022-11-15T11:28:05;99648.50;;;15.07;100.00
5413;BME280;2729;50.056;8.678;2022-11-15T11:33:30;99634.34;;;15.10;100.00
5413;BME280;2729;50.056;8.678;2022-11-15T11:36:15;99642.00;;;15.15;100.00
5413;BME280;2729;50.056;8.678;2022-11-15T11:39:00;99625.56;;;15.27;100.00
5413;BME280;2729;50.056;8.678;2022-11-15T11:44:32;99616.91;;;15.40;100.00
5413;BME280;2729;50.056;8.678;2022-11-15T11:47:09;99618.09;;;15.51;100.00
5413;BME280;2729;50.056;8.678;2022-11-15T11:49:45;99621.31;;;15.40;100.00
5413;BME280;2729;50.056;8.678;2022-11-15T11:52:25;99616.66;;;15.45;100.00
5413;BME280;2729;50.056;8.678;2022-11-15T11:55:23;99609.03;;;15.40;100.00
5413;BME280;2729;50.056;8.678;2022-11-15T11:58:22;99601.31;;;15.37;100.00
5413;BME280;2729;50.056;8.678;2022-11-15T12:00:55;99597.38;;;15.62;100.00
5413;BME280;2729;50.056;8.678;2022-11-15T12:03:28;99592.38;;;15.56;100.00
5413;BME280;2729;50.056;8.678;2022-11-15T12:06:06;99589.22;;;15.66;100.00
5413;BME280;2729;50.056;8.678;2022-11-15T12:08:46;99591.59;;;15.71;100.00
5413;BME280;2729;50.056;8.678;2022-11-15T12:11:20;99593.94;;;15.60;100.00
5413;BME280;2729;50.056;8.678;2022-11-15T12:13:50;99585.09;;;15.92;100.00
5413;BME280;2729;50.056;8.678;2022-11-15T12:16:27;99580.50;;;15.96;100.00
5413;BME280;2729;50.056;8.678;2022-11-15T12:18:54;99567.03;;;15.86;100.00
5413;BME280;2729;50.056;8.678;2022-11-15T12:21:27;99573.13;;;15.87;100.00
5413;BME280;2729;50.056;8.678;2022-11-15T12:24:02;99567.88;;;15.87;100.00
5413;BME280;2729;50.056;8.678;2022-11-15T12:26:38;99561.50;;;15.91;100.00
5413;BME280;2729;50.056;8.678;2022-11-15T12:31:49;99547.63;;;16.03;100.00
5413;BME280;2729;50.056;8.678;2022-11-15T12:36:49;99538.25;;;16.27;100.00
5413;BME280;2729;50.056;8.678;2022-11-15T12:39:17;99538.44;;;16.24;100.00
5413;BME280;2729;50.056;8.678;2022-11-15T12:42:23;99534.69;;;16.28;100.00
5413;BME280;2729;50.056;8.678;2022-11-15T12:59:51;99531.69;;;15.90;100.00
5413;BME280;2729;50.056;8.678;2022-11-15T13:17:51;99511.50;;;16.05;100.00
5413;BME280;2729;50.056;8.678;2022-11-15T13:20:25;99515.47;;;16.12;100.00
5413;BME280;2729;50.056;8.678;2022-11-15T13:22:53;99512.94;;;16.11;100.00
5413;BME280;2729;50.056;8.678;2022-11-15T13:27:58;99507.31;;;15.72;100.00
5413;BME280;2729;50.056;8.678;2022-11-15T13:30:29;99500.13;;;16.04;100.00
5413;BME280;2729;50.056;8.678;2022-11-15T13:32:58;99493.28;;;16.02;100.00
5413;BME280;2729;50.056;8.678;2022-11-15T13:35:28;99490.47;;;16.05;100.00
5413;BME280;2729;50.056;8.678;2022-11-15T13:37:56;99489.69;;;16.03;100.00
5413;BME280;2729;50.056;8.678;2022-11-15T13:40:34;99483.59;;;16.02;100.00
5413;BME280;2729;50.056;8.678;2022-11-15T13:43:23;99479.25;;;16.01;100.00
5413;BME280;2729;50.056;8.678;2022-11-15T13:48:35;99464.69;;;15.96;100.00
5413;BME280;2729;50.056;8.678;2022-11-15T13:51:07;99459.69;;;15.91;100.00
5413;BME280;2729;50.056;8.678;2022-11-15T13:53:40;99459.41;;;15.96;100.00
5413;BME280;2729;50.056;8.678;2022-11-15T13:56:07;99458.56;;;15.95;100.00
5413;BME280;2729;50.056;8.678;2022-11-15T13:58:37;99459.78;;;15.90;100.00
5413;BME280;2729;50.056;8.678;2022-11-15T14:01:04;99451.63;;;15.94;100.00
5413;BME280;2729;50.056;8.678;2022-11-15T14:03:37;99451.44;;;15.97;100.00
5413;BME280;2729;50.056;8.678;2022-11-15T14:06:16;99452.28;;;15.98;100.00
5413;BME280;2729;50.056;8.678;2022-11-15T14:11:35;99432.63;;;15.89;100.00
5413;BME280;2729;50.056;8.678;2022-11-15T14:16:44;99436.84;;;15.92;100.00
5413;BME280;2729;50.056;8.678;2022-11-15T14:22:17;99434.50;;;15.87;100.00
5413;BME280;2729;50.056;8.678;2022-11-15T14:25:22;99428.66;;;15.82;100.00
5413;BME280;2729;50.056;8.678;2022-11-15T14:28:11;99423.88;;;15.74;100.00
5413;BME280;2729;50.056;8.678;2022-11-15T14:30:39;99421.06;;;15.78;100.00
5413;BME280;2729;50.056;8.678;2022-11-15T14:33:34;99421.25;;;15.74;100.00
5413;BME280;2729;50.056;8.678;2022-11-15T14:36:12;99419.72;;;15.70;100.00
5413;BME280;2729;50.056;8.678;2022-11-15T14:38:38;99411.16;;;15.67;100.00
5413;BME280;2729;50.056;8.678;2022-11-15T14:41:04;99409.56;;;15.64;100.00
5413;BME280;2729;50.056;8.678;2022-11-15T14:43:31;99400.91;;;15.62;100.00
5413;BME280;2729;50.056;8.678;2022-11-15T14:45:57;99394.91;;;15.60;100.00
5413;BME280;2729;50.056;8.678;2022-11-15T14:48:23;99399.44;;;15.57;100.00
5413;BME280;2729;50.056;8.678;2022-11-15T14:50:49;99387.31;;;15.54;100.00
5413;BME280;2729;50.056;8.678;2022-11-15T14:53:17;99395.28;;;15.53;100.00
5413;BME280;2729;50.056;8.678;2022-11-15T14:55:43;99392.84;;;15.50;100.00
5413;BME280;2729;50.056;8.678;2022-11-15T14:58:10;99386.75;;;15.49;100.00
5413;BME280;2729;50.056;8.678;2022-11-15T15:00:38;99389.47;;;15.48;100.00
5413;BME280;2729;50.056;8.678;2022-11-15T15:03:04;99378.47;;;15.41;100.00
5413;BME280;2729;50.056;8.678;2022-11-15T15:05:36;99370.75;;;15.38;100.00
5413;BME280;2729;50.056;8.678;2022-11-15T15:08:03;99369.50;;;15.29;100.00
5413;BME280;2729;50.056;8.678;2022-11-15T15:10:35;99360.38;;;15.21;100.00
5413;BME280;2729;50.056;8.678;2022-11-15T15:13:03;99351.91;;;15.16;100.00
5413;BME280;2729;50.056;8.678;2022-11-15T15:15:34;99343.31;;;14.98;100.00
5413;BME280;2729;50.056;8.678;2022-11-15T15:18:01;99338.56;;;15.04;100.00
5413;BME280;2729;50.056;8.678;2022-11-15T15:20:27;99338.38;;;15.07;100.00
5413;BME280;2729;50.056;8.678;2022-11-15T15:22:54;99338.91;;;14.98;100.00
5413;BME280;2729;50.056;8.678;2022-11-15T15:25:23;99325.94;;;14.95;100.00
5413;BME280;2729;50.056;8.678;2022-11-15T15:27:53;99323.41;;;14.94;100.00
5413;BME280;2729;50.056;8.678;2022-11-15T15:30:20;99326.09;;;14.78;100.00
5413;BME280;2729;50.056;8.678;2022-11-15T15:32:46;99317.84;;;14.84;100.00
5413;BME280;2729;50.056;8.678;2022-11-15T15:35:14;99309.03;;;14.85;100.00
5413;BME280;2729;50.056;8.678;2022-11-15T15:37:41;99320.47;;;14.84;100.00
5413;BME280;2729;50.056;8.678;2022-11-15T15:40:20;99314.47;;;14.82;100.00
5413;BME280;2729;50.056;8.678;2022-11-15T15:42:48;99308.44;;;14.80;100.00
5413;BME280;2729;50.056;8.678;2022-11-15T15:45:14;99305.59;;;14.69;100.00
5413;BME280;2729;50.056;8.678;2022-11-15T15:47:41;99296.19;;;14.65;100.00
5413;BME280;2729;50.056;8.678;2022-11-15T15:50:20;99300.34;;;14.69;100.00
5413;BME280;2729;50.056;8.678;2022-11-15T15:52:49;99294.69;;;14.61;100.00
5413;BME280;2729;50.056;8.678;2022-11-15T15:55:15;99293.66;;;14.63;100.00
5413;BME280;2729;50.056;8.678;2022-11-15T15:57:41;99293.34;;;14.54;100.00
5413;BME280;2729;50.056;8.678;2022-11-15T16:00:09;99299.53;;;14.53;100.00
5413;BME280;2729;50.056;8.678;2022-11-15T16:02:39;99297.16;;;14.48;100.00
5413;BME280;2729;50.056;8.678;2022-11-15T16:05:06;99292.41;;;14.55;100.00